sensor_id;sensor_type;location;lat;lon;timestamp;temperature;humidity
4896;DHT22;2463;49.948;8.472;2023-03-21T00:00:39;10.40;99.90
4896;DHT22;2463;49.948;8.472;2023-03-21T00:03:06;10.50;99.90
4896;DHT22;2463;49.948;8.472;2023-03-21T00:05:33;10.50;99.90
4896;DHT22;2463;49.948;8.472;2023-03-21T00:07:59;10.40;99.90
4896;DHT22;2463;49.948;8.472;2023-03-21T00:10:28;10.40;99.90
4896;DHT22;2463;49.948;8.472;2023-03-21T00:13:06;10.40;99.90
4896;DHT22;2463;49.948;8.472;2023-03-21T00:15:33;10.30;99.90
4896;DHT22;2463;49.948;8.472;2023-03-21T00:18:20;10.30;99.90
4896;DHT22;2463;49.948;8.472;2023-03-21T00:20:58;10.30;99.90
4896;DHT22;2463;49.948;8.472;2023-03-21T00:23:45;10.30;99.90
4896;DHT22;2463;49.948;8.472;2023-03-21T00:26:13;10.30;99.90
4896;DHT22;2463;49.948;8.472;2023-03-21T00:28:41;10.30;99.90
4896;DHT22;2463;49.948;8.472;2023-03-21T00:31:08;10.30;99.90
4896;DHT22;2463;49.948;8.472;2023-03-21T00:33:35;10.20;99.90
4896;DHT22;2463;49.948;8.472;2023-03-21T00:36:05;10.20;99.90
4896;DHT22;2463;49.948;8.472;2023-03-21T00:38:35;10.20;99.90
4896;DHT22;2463;49.948;8.472;2023-03-21T00:41:07;10.20;99.90
4896;DHT22;2463;49.948;8.472;2023-03-21T00:43:49;10.30;99.90
4896;DHT22;2463;49.948;8.472;2023-03-21T00:46:17;10.20;99.90
4896;DHT22;2463;49.948;8.472;2023-03-21T00:48:44;10.20;99.90
4896;DHT22;2463;49.948;8.472;2023-03-21T00:51:16;10.20;99.90
4896;DHT22;2463;49.948;8.472;2023-03-21T00:53:44;10.20;99.90
4896;DHT22;2463;49.948;8.472;2023-03-21T00:56:10;10.20;99.90
4896;DHT22;2463;49.948;8.472;2023-03-21T00:58:37;10.20;99.90
4896;DHT22;2463;49.948;8.472;2023-03-21T01:01:04;10.20;99.90
4896;DHT22;2463;49.948;8.472;2023-03-21T01:03:32;10.20;99.90
4896;DHT22;2463;49.948;8.472;2023-03-21T01:06:09;10.20;99.90
4896;DHT22;2463;49.948;8.472;2023-03-21T01:08:40;10.10;99.90
4896;DHT22;2463;49.948;8.472;2023-03-21T01:11:20;10.10;99.90
4896;DHT22;2463;49.948;8.472;2023-03-21T01:13:48;10.00;99.90
4896;DHT22;2463;49.948;8.472;2023-03-21T01:16:35;10.00;99.90
4896;DHT22;2463;49.948;8.472;2023-03-21T01:19:05;10.00;99.90
4896;DHT22;2463;49.948;8.472;2023-03-21T01:21:38;10.00;99.90
4896;DHT22;2463;49.948;8.472;2023-03-21T01:24:05;10.00;99.90
4896;DHT22;2463;49.948;8.472;2023-03-21T01:26:32;10.00;99.90
4896;DHT22;2463;49.948;8.472;2023-03-21T01:28:59;9.90;99.90
4896;DHT22;2463;49.948;8.472;2023-03-21T01:31:25;9.90;99.90
4896;DHT22;2463;49.948;8.472;2023-03-21T01:33:52;9.90;99.90
4896;DHT22;2463;49.948;8.472;2023-03-21T01:36:21;9.90;99.90
4896;DHT22;2463;49.948;8.472;2023-03-21T01:38:50;9.80;99.90
4896;DHT22;2463;49.948;8.472;2023-03-21T01:44:06;9.70;99.90
4896;DHT22;2463;49.948;8.472;2023-03-21T01:46:41;9.70;99.90
4896;DHT22;2463;49.948;8.472;2023-03-21T01:49:32;9.60;99.90
4896;DHT22;2463;49.948;8.472;2023-03-21T01:52:04;9.50;99.90
4896;DHT22;2463;49.948;8.472;2023-03-21T01:54:40;9.50;99.90
4896;DHT22;2463;49.948;8.472;2023-03-21T01:57:12;9.30;99.90
4896;DHT22;2463;49.948;8.472;2023-03-21T01:59:46;9.30;99.90
4896;DHT22;2463;49.948;8.472;2023-03-21T02:02:20;9.20;99.90
4896;DHT22;2463;49.948;8.472;2023-03-21T02:04:49;9.20;99.90
4896;DHT22;2463;49.948;8.472;2023-03-21T02:07:28;9.10;99.90
4896;DHT22;2463;49.948;8.472;2023-03-21T02:09:55;9.10;99.90
4896;DHT22;2463;49.948;8.472;2023-03-21T02:12:25;9.10;99.90
4896;DHT22;2463;49.948;8.472;2023-03-21T02:14:52;9.00;99.90
4896;DHT22;2463;49.948;8.472;2023-03-21T02:23:35;8.80;99.90
4896;DHT22;2463;49.948;8.472;2023-03-21T02:26:30;8.80;99.90
4896;DHT22;2463;49.948;8.472;2023-03-21T02:29:27;8.70;99.90
4896;DHT22;2463;49.948;8.472;2023-03-21T02:38:27;8.50;99.90
4896;DHT22;2463;49.948;8.472;2023-03-21T02:44:30;8.50;99.90
4896;DHT22;2463;49.948;8.472;2023-03-21T02:47:07;8.40;99.90
4896;DHT22;2463;49.948;8.472;2023-03-21T02:49:59;8.40;99.90
4896;DHT22;2463;49.948;8.472;2023-03-21T02:52:31;8.40;99.90
4896;DHT22;2463;49.948;8.472;2023-03-21T02:55:09;8.20;99.90
4896;DHT22;2463;49.948;8.472;2023-03-21T02:57:41;8.20;99.90
4896;DHT22;2463;49.948;8.472;2023-03-21T03:00:12;8.20;99.90
4896;DHT22;2463;49.948;8.472;2023-03-21T03:02:43;8.20;99.90
4896;DHT22;2463;49.948;8.472;2023-03-21T03:05:18;8.20;99.90
4896;DHT22;2463;49.948;8.472;2023-03-21T03:08:06;8.30;99.90
4896;DHT22;2463;49.948;8.472;2023-03-21T03:10:55;8.30;99.90
4896;DHT22;2463;49.948;8.472;2023-03-21T03:18:55;8.30;99.90
4896;DHT22;2463;49.948;8.472;2023-03-21T03:21:31;8.20;99.90
4896;DHT22;2463;49.948;8.472;2023-03-21T03:24:10;8.20;99.90
4896;DHT22;2463;49.948;8.472;2023-03-21T03:26:38;8.10;99.90
4896;DHT22;2463;49.948;8.472;2023-03-21T03:29:10;8.10;99.90
4896;DHT22;2463;49.948;8.472;2023-03-21T03:31:45;8.10;99.90
4896;DHT22;2463;49.948;8.472;2023-03-21T03:34:16;8.10;99.90
4896;DHT22;2463;49.948;8.472;2023-03-21T03:36:49;8.10;99.90
4896;DHT22;2463;49.948;8.472;2023-03-21T03:39:26;8.10;99.90
4896;DHT22;2463;49.948;8.472;2023-03-21T03:42:03;8.20;99.90
4896;DHT22;2463;49.948;8.472;2023-03-21T03:44:51;8.20;99.90
4896;DHT22;2463;49.948;8.472;2023-03-21T03:50:37;8.10;99.90
4896;DHT22;2463;49.948;8.472;2023-03-21T03:53:19;8.10;99.90
4896;DHT22;2463;49.948;8.472;2023-03-21T03:55:49;8.00;99.90
4896;DHT22;2463;49.948;8.472;2023-03-21T03:58:18;8.00;99.90
4896;DHT22;2463;49.948;8.472;2023-03-21T04:00:51;8.00;99.90
4896;DHT22;2463;49.948;8.472;2023-03-21T04:03:19;8.00;99.90
4896;DHT22;2463;49.948;8.472;2023-03-21T04:05:46;8.10;99.90
4896;DHT22;2463;49.948;8.472;2023-03-21T04:08:13;8.10;99.90
4896;DHT22;2463;49.948;8.472;2023-03-21T04:10:41;8.10;99.90
4896;DHT22;2463;49.948;8.472;2023-03-21T04:13:08;8.20;99.90
4896;DHT22;2463;49.948;8.472;2023-03-21T04:15:36;8.20;99.90
4896;DHT22;2463;49.948;8.472;2023-03-21T04:18:02;8.20;99.90
4896;DHT22;2463;49.948;8.472;2023-03-21T04:20:29;8.20;99.90
4896;DHT22;2463;49.948;8.472;2023-03-21T04:23:03;8.10;99.90
4896;DHT22;2463;49.948;8.472;2023-03-21T04:25:35;8.10;99.90
4896;DHT22;2463;49.948;8.472;2023-03-21T04:28:05;8.20;99.90
4896;DHT22;2463;49.948;8.472;2023-03-21T04:30:32;8.10;99.90
4896;DHT22;2463;49.948;8.472;2023-03-21T04:32:59;8.10;99.90
4896;DHT22;2463;49.948;8.472;2023-03-21T04:35:26;8.10;99.90
4896;DHT22;2463;49.948;8.472;2023-03-21T04:37:54;8.20;99.90
4896;DHT22;2463;49.948;8.472;2023-03-21T04:40:21;8.20;99.90
4896;DHT22;2463;49.948;8.472;2023-03-21T04:42:51;8.20;99.90
4896;DHT22;2463;49.948;8.472;2023-03-21T04:45:18;8.20;99.90
4896;DHT22;2463;49.948;8.472;2023-03-21T04:47:45;8.20;99.90
4896;DHT22;2463;49.948;8.472;2023-03-21T04:50:12;8.10;99.90
4896;DHT22;2463;49.948;8.472;2023-03-21T04:52:39;8.20;99.90
4896;DHT22;2463;49.948;8.472;2023-03-21T04:55:06;8.20;99.90
4896;DHT22;2463;49.948;8.472;2023-03-21T04:57:36;8.20;99.90
4896;DHT22;2463;49.948;8.472;2023-03-21T05:00:05;8.30;99.90
4896;DHT22;2463;49.948;8.472;2023-03-21T05:02:51;8.30;99.90
4896;DHT22;2463;49.948;8.472;2023-03-21T05:05:17;8.30;99.90
4896;DHT22;2463;49.948;8.472;2023-03-21T05:07:44;8.30;99.90
4896;DHT22;2463;49.948;8.472;2023-03-21T05:10:11;8.40;99.90
4896;DHT22;2463;49.948;8.472;2023-03-21T05:12:38;8.40;99.90
4896;DHT22;2463;49.948;8.472;2023-03-21T05:15:05;8.40;99.90
4896;DHT22;2463;49.948;8.472;2023-03-21T05:17:33;8.50;99.90
4896;DHT22;2463;49.948;8.472;2023-03-21T05:19:59;8.50;99.90
4896;DHT22;2463;49.948;8.472;2023-03-21T05:22:26;8.50;99.90
4896;DHT22;2463;49.948;8.472;2023-03-21T05:24:54;8.50;99.90
4896;DHT22;2463;49.948;8.472;2023-03-21T05:27:22;8.50;99.90
4896;DHT22;2463;49.948;8.472;2023-03-21T05:30:19;8.50;99.90
4896;DHT22;2463;49.948;8.472;2023-03-21T05:32:46;8.50;99.90
4896;DHT22;2463;49.948;8.472;2023-03-21T05:35:12;8.40;99.90
4896;DHT22;2463;49.948;8.472;2023-03-21T05:37:39;8.40;99.90
4896;DHT22;2463;49.948;8.472;2023-03-21T05:40:06;8.50;99.90
4896;DHT22;2463;49.948;8.472;2023-03-21T05:42:34;8.40;99.90
4896;DHT22;2463;49.948;8.472;2023-03-21T05:45:00;8.50;99.90
4896;DHT22;2463;49.948;8.472;2023-03-21T05:47:27;8.60;99.90
4896;DHT22;2463;49.948;8.472;2023-03-21T05:49:54;8.70;99.90
4896;DHT22;2463;49.948;8.472;2023-03-21T05:52:21;8.80;99.90
4896;DHT22;2463;49.948;8.472;2023-03-21T05:54:48;8.90;99.90
4896;DHT22;2463;49.948;8.472;2023-03-21T05:57:14;9.10;99.90
4896;DHT22;2463;49.948;8.472;2023-03-21T05:59:41;9.20;99.90
4896;DHT22;2463;49.948;8.472;2023-03-21T06:02:08;9.50;99.90
4896;DHT22;2463;49.948;8.472;2023-03-21T06:04:35;9.60;99.90
4896;DHT22;2463;49.948;8.472;2023-03-21T06:07:01;9.70;99.90
4896;DHT22;2463;49.948;8.472;2023-03-21T06:09:28;9.80;99.90
4896;DHT22;2463;49.948;8.472;2023-03-21T06:11:56;9.90;99.90
4896;DHT22;2463;49.948;8.472;2023-03-21T06:14:23;9.90;99.90
4896;DHT22;2463;49.948;8.472;2023-03-21T06:16:50;10.00;99.90
4896;DHT22;2463;49.948;8.472;2023-03-21T06:19:19;10.00;99.90
4896;DHT22;2463;49.948;8.472;2023-03-21T06:21:48;10.10;99.90
4896;DHT22;2463;49.948;8.472;2023-03-21T06:24:14;10.20;99.90
4896;DHT22;2463;49.948;8.472;2023-03-21T06:26:43;10.20;99.90
4896;DHT22;2463;49.948;8.472;2023-03-21T06:29:11;10.20;99.90
4896;DHT22;2463;49.948;8.472;2023-03-21T06:31:37;10.20;99.90
4896;DHT22;2463;49.948;8.472;2023-03-21T06:34:05;10.20;99.90
4896;DHT22;2463;49.948;8.472;2023-03-21T06:36:32;10.20;99.90
4896;DHT22;2463;49.948;8.472;2023-03-21T06:38:58;10.30;99.90
4896;DHT22;2463;49.948;8.472;2023-03-21T06:41:25;10.30;99.90
4896;DHT22;2463;49.948;8.472;2023-03-21T06:43:52;10.30;99.90
4896;DHT22;2463;49.948;8.472;2023-03-21T06:46:18;10.30;99.90
4896;DHT22;2463;49.948;8.472;2023-03-21T06:48:45;10.30;99.90
4896;DHT22;2463;49.948;8.472;2023-03-21T06:51:13;10.20;99.90
4896;DHT22;2463;49.948;8.472;2023-03-21T06:53:40;10.30;99.90
4896;DHT22;2463;49.948;8.472;2023-03-21T06:56:12;10.60;99.90
4896;DHT22;2463;49.948;8.472;2023-03-21T06:58:39;11.10;99.90
4896;DHT22;2463;49.948;8.472;2023-03-21T07:01:06;11.80;99.90
4896;DHT22;2463;49.948;8.472;2023-03-21T07:03:34;12.40;99.90
4896;DHT22;2463;49.948;8.472;2023-03-21T07:06:08;12.70;99.90
4896;DHT22;2463;49.948;8.472;2023-03-21T07:08:38;12.80;99.90
4896;DHT22;2463;49.948;8.472;2023-03-21T07:11:06;12.70;99.90
4896;DHT22;2463;49.948;8.472;2023-03-21T07:13:33;12.50;99.90
4896;DHT22;2463;49.948;8.472;2023-03-21T07:15:59;12.40;99.90
4896;DHT22;2463;49.948;8.472;2023-03-21T07:18:26;12.30;99.90
4896;DHT22;2463;49.948;8.472;2023-03-21T07:20:53;12.40;99.90
4896;DHT22;2463;49.948;8.472;2023-03-21T07:23:21;12.30;99.90
4896;DHT22;2463;49.948;8.472;2023-03-21T07:25:49;12.30;99.90
4896;DHT22;2463;49.948;8.472;2023-03-21T07:28:17;12.30;99.90
4896;DHT22;2463;49.948;8.472;2023-03-21T07:30:45;12.50;99.90
4896;DHT22;2463;49.948;8.472;2023-03-21T07:33:16;12.50;99.90
4896;DHT22;2463;49.948;8.472;2023-03-21T07:35:43;12.50;99.90
4896;DHT22;2463;49.948;8.472;2023-03-21T07:38:10;12.30;99.90
4896;DHT22;2463;49.948;8.472;2023-03-21T07:40:36;12.30;99.90
4896;DHT22;2463;49.948;8.472;2023-03-21T07:43:03;12.30;99.90
4896;DHT22;2463;49.948;8.472;2023-03-21T07:45:30;12.30;99.90
4896;DHT22;2463;49.948;8.472;2023-03-21T07:47:57;12.40;99.90
4896;DHT22;2463;49.948;8.472;2023-03-21T07:50:23;12.30;99.90
4896;DHT22;2463;49.948;8.472;2023-03-21T07:52:50;12.40;99.90
4896;DHT22;2463;49.948;8.472;2023-03-21T07:55:17;12.50;99.90
4896;DHT22;2463;49.948;8.472;2023-03-21T07:57:44;12.60;99.90
4896;DHT22;2463;49.948;8.472;2023-03-21T08:00:11;12.70;99.90
4896;DHT22;2463;49.948;8.472;2023-03-21T08:02:39;12.90;99.90
4896;DHT22;2463;49.948;8.472;2023-03-21T08:05:06;13.00;99.90
4896;DHT22;2463;49.948;8.472;2023-03-21T08:07:33;13.20;99.90
4896;DHT22;2463;49.948;8.472;2023-03-21T08:10:00;13.50;99.90
4896;DHT22;2463;49.948;8.472;2023-03-21T08:12:27;13.80;99.90
4896;DHT22;2463;49.948;8.472;2023-03-21T08:14:53;14.00;99.90
4896;DHT22;2463;49.948;8.472;2023-03-21T08:17:20;14.40;99.90
4896;DHT22;2463;49.948;8.472;2023-03-21T08:19:47;14.60;99.90
4896;DHT22;2463;49.948;8.472;2023-03-21T08:22:14;14.80;99.90
4896;DHT22;2463;49.948;8.472;2023-03-21T08:24:41;15.20;99.90
4896;DHT22;2463;49.948;8.472;2023-03-21T08:27:08;15.60;99.90
4896;DHT22;2463;49.948;8.472;2023-03-21T08:29:34;16.40;99.90
4896;DHT22;2463;49.948;8.472;2023-03-21T08:32:06;17.30;99.90
4896;DHT22;2463;49.948;8.472;2023-03-21T08:34:32;17.50;99.90
4896;DHT22;2463;49.948;8.472;2023-03-21T08:37:00;17.20;99.90
4896;DHT22;2463;49.948;8.472;2023-03-21T08:39:26;16.80;99.90
4896;DHT22;2463;49.948;8.472;2023-03-21T08:41:53;16.70;99.90
4896;DHT22;2463;49.948;8.472;2023-03-21T08:44:20;16.50;99.90
4896;DHT22;2463;49.948;8.472;2023-03-21T08:46:47;16.00;99.90
4896;DHT22;2463;49.948;8.472;2023-03-21T08:49:14;15.80;99.90
4896;DHT22;2463;49.948;8.472;2023-03-21T08:51:40;15.90;99.90
4896;DHT22;2463;49.948;8.472;2023-03-21T08:54:20;16.00;99.90
4896;DHT22;2463;49.948;8.472;2023-03-21T08:56:47;16.10;99.90
4896;DHT22;2463;49.948;8.472;2023-03-21T08:59:14;16.10;99.90
4896;DHT22;2463;49.948;8.472;2023-03-21T09:01:41;16.40;99.90
4896;DHT22;2463;49.948;8.472;2023-03-21T09:04:08;17.00;99.90
4896;DHT22;2463;49.948;8.472;2023-03-21T09:06:37;17.10;99.90
4896;DHT22;2463;49.948;8.472;2023-03-21T09:09:04;17.00;99.90
4896;DHT22;2463;49.948;8.472;2023-03-21T09:11:33;16.80;99.90
4896;DHT22;2463;49.948;8.472;2023-03-21T09:14:00;16.70;99.90
4896;DHT22;2463;49.948;8.472;2023-03-21T09:16:27;16.40;99.90
4896;DHT22;2463;49.948;8.472;2023-03-21T09:18:54;16.30;99.90
4896;DHT22;2463;49.948;8.472;2023-03-21T09:21:22;16.20;99.90
4896;DHT22;2463;49.948;8.472;2023-03-21T09:23:50;16.00;99.90
4896;DHT22;2463;49.948;8.472;2023-03-21T09:26:18;15.70;99.90
4896;DHT22;2463;49.948;8.472;2023-03-21T09:28:46;15.40;99.90
4896;DHT22;2463;49.948;8.472;2023-03-21T09:31:13;15.30;99.90
4896;DHT22;2463;49.948;8.472;2023-03-21T09:33:42;15.10;99.90
4896;DHT22;2463;49.948;8.472;2023-03-21T09:36:10;14.90;99.90
4896;DHT22;2463;49.948;8.472;2023-03-21T09:38:42;14.80;99.90
4896;DHT22;2463;49.948;8.472;2023-03-21T09:41:42;14.80;99.90
4896;DHT22;2463;49.948;8.472;2023-03-21T09:49:41;14.90;99.90
4896;DHT22;2463;49.948;8.472;2023-03-21T09:52:36;15.10;99.90
4896;DHT22;2463;49.948;8.472;2023-03-21T09:55:15;15.30;99.90
4896;DHT22;2463;49.948;8.472;2023-03-21T09:57:48;15.50;99.90
4896;DHT22;2463;49.948;8.472;2023-03-21T10:00:24;15.60;99.90
4896;DHT22;2463;49.948;8.472;2023-03-21T10:02:56;15.90;99.90
4896;DHT22;2463;49.948;8.472;2023-03-21T10:05:29;16.30;99.90
4896;DHT22;2463;49.948;8.472;2023-03-21T10:08:08;16.50;99.90
4896;DHT22;2463;49.948;8.472;2023-03-21T10:10:50;16.80;99.90
4896;DHT22;2463;49.948;8.472;2023-03-21T10:13:31;17.10;99.90
4896;DHT22;2463;49.948;8.472;2023-03-21T10:16:01;17.10;99.90
4896;DHT22;2463;49.948;8.472;2023-03-21T10:18:30;16.80;99.90
4896;DHT22;2463;49.948;8.472;2023-03-21T10:20:57;16.80;99.90
4896;DHT22;2463;49.948;8.472;2023-03-21T10:23:27;16.90;99.90
4896;DHT22;2463;49.948;8.472;2023-03-21T10:25:58;17.10;99.90
4896;DHT22;2463;49.948;8.472;2023-03-21T10:28:31;17.00;99.90
4896;DHT22;2463;49.948;8.472;2023-03-21T10:31:20;16.90;99.90
4896;DHT22;2463;49.948;8.472;2023-03-21T10:33:52;16.40;99.90
4896;DHT22;2463;49.948;8.472;2023-03-21T10:36:22;15.90;99.90
4896;DHT22;2463;49.948;8.472;2023-03-21T10:39:01;15.80;99.90
4896;DHT22;2463;49.948;8.472;2023-03-21T10:41:29;15.40;99.90
4896;DHT22;2463;49.948;8.472;2023-03-21T10:44:22;15.20;99.90
4896;DHT22;2463;49.948;8.472;2023-03-21T10:47:08;15.00;99.90
4896;DHT22;2463;49.948;8.472;2023-03-21T10:49:36;14.80;99.90
4896;DHT22;2463;49.948;8.472;2023-03-21T10:52:26;14.60;99.90
4896;DHT22;2463;49.948;8.472;2023-03-21T10:55:30;14.40;99.90
4896;DHT22;2463;49.948;8.472;2023-03-21T10:58:12;14.20;99.90
4896;DHT22;2463;49.948;8.472;2023-03-21T11:00:45;14.10;99.90
4896;DHT22;2463;49.948;8.472;2023-03-21T11:03:31;14.10;99.90
4896;DHT22;2463;49.948;8.472;2023-03-21T11:06:05;14.10;99.90
4896;DHT22;2463;49.948;8.472;2023-03-21T11:08:43;14.10;99.90
4896;DHT22;2463;49.948;8.472;2023-03-21T11:11:27;14.20;99.90
4896;DHT22;2463;49.948;8.472;2023-03-21T11:14:00;14.10;99.90
4896;DHT22;2463;49.948;8.472;2023-03-21T11:16:41;14.10;99.90
4896;DHT22;2463;49.948;8.472;2023-03-21T11:19:14;14.00;99.90
4896;DHT22;2463;49.948;8.472;2023-03-21T11:21:41;13.90;99.90
4896;DHT22;2463;49.948;8.472;2023-03-21T11:24:16;13.80;99.90
4896;DHT22;2463;49.948;8.472;2023-03-21T11:26:47;13.70;99.90
4896;DHT22;2463;49.948;8.472;2023-03-21T11:29:23;13.60;99.90
4896;DHT22;2463;49.948;8.472;2023-03-21T11:31:52;13.60;99.90
4896;DHT22;2463;49.948;8.472;2023-03-21T11:34:32;13.80;99.90
4896;DHT22;2463;49.948;8.472;2023-03-21T11:37:04;13.80;99.90
4896;DHT22;2463;49.948;8.472;2023-03-21T11:39:35;13.80;99.90
4896;DHT22;2463;49.948;8.472;2023-03-21T11:42:23;13.90;99.90
4896;DHT22;2463;49.948;8.472;2023-03-21T11:45:00;14.00;99.90
4896;DHT22;2463;49.948;8.472;2023-03-21T11:47:27;14.20;99.90
4896;DHT22;2463;49.948;8.472;2023-03-21T11:49:54;14.40;99.90
4896;DHT22;2463;49.948;8.472;2023-03-21T11:53:02;14.60;99.90
4896;DHT22;2463;49.948;8.472;2023-03-21T11:55:56;14.80;99.90
4896;DHT22;2463;49.948;8.472;2023-03-21T12:06:57;14.50;99.90
4896;DHT22;2463;49.948;8.472;2023-03-21T12:09:54;14.40;99.90
4896;DHT22;2463;49.948;8.472;2023-03-21T12:12:41;14.30;99.90
4896;DHT22;2463;49.948;8.472;2023-03-21T12:15:32;14.30;99.90
4896;DHT22;2463;49.948;8.472;2023-03-21T12:18:20;14.50;99.90
4896;DHT22;2463;49.948;8.472;2023-03-21T12:31:26;14.00;99.90
4896;DHT22;2463;49.948;8.472;2023-03-21T12:34:18;13.90;99.90
4896;DHT22;2463;49.948;8.472;2023-03-21T12:37:17;13.80;99.90
4896;DHT22;2463;49.948;8.472;2023-03-21T12:39:47;13.80;99.90
4896;DHT22;2463;49.948;8.472;2023-03-21T12:42:37;13.90;99.90
4896;DHT22;2463;49.948;8.472;2023-03-21T12:45:13;14.00;99.90
4896;DHT22;2463;49.948;8.472;2023-03-21T12:47:46;14.10;99.90
4896;DHT22;2463;49.948;8.472;2023-03-21T12:50:20;14.10;99.90
4896;DHT22;2463;49.948;8.472;2023-03-21T12:52:53;14.20;99.90
4896;DHT22;2463;49.948;8.472;2023-03-21T12:55:22;14.20;99.90
4896;DHT22;2463;49.948;8.472;2023-03-21T12:58:01;14.20;99.90
4896;DHT22;2463;49.948;8.472;2023-03-21T13:00:43;14.30;99.90
4896;DHT22;2463;49.948;8.472;2023-03-21T13:03:20;14.30;99.90
4896;DHT22;2463;49.948;8.472;2023-03-21T13:06:05;14.40;99.90
4896;DHT22;2463;49.948;8.472;2023-03-21T13:08:40;14.50;99.90
4896;DHT22;2463;49.948;8.472;2023-03-21T13:11:12;14.60;99.90
4896;DHT22;2463;49.948;8.472;2023-03-21T13:19:14;14.60;99.90
4896;DHT22;2463;49.948;8.472;2023-03-21T13:21:45;14.50;99.90
4896;DHT22;2463;49.948;8.472;2023-03-21T13:24:25;14.40;99.90
4896;DHT22;2463;49.948;8.472;2023-03-21T13:27:05;14.30;99.90
4896;DHT22;2463;49.948;8.472;2023-03-21T13:29:49;14.30;99.90
4896;DHT22;2463;49.948;8.472;2023-03-21T13:32:29;14.30;99.90
4896;DHT22;2463;49.948;8.472;2023-03-21T13:35:20;14.40;99.90
4896;DHT22;2463;49.948;8.472;2023-03-21T13:37:57;14.40;99.90
4896;DHT22;2463;49.948;8.472;2023-03-21T13:40:28;14.40;99.90
4896;DHT22;2463;49.948;8.472;2023-03-21T13:43:00;14.50;99.90
4896;DHT22;2463;49.948;8.472;2023-03-21T13:45:32;14.40;99.90
4896;DHT22;2463;49.948;8.472;2023-03-21T13:48:05;14.50;99.90
4896;DHT22;2463;49.948;8.472;2023-03-21T13:50:35;14.50;99.90
4896;DHT22;2463;49.948;8.472;2023-03-21T13:55:44;14.50;99.90
4896;DHT22;2463;49.948;8.472;2023-03-21T13:58:31;14.50;99.90
4896;DHT22;2463;49.948;8.472;2023-03-21T14:01:34;14.40;99.90
4896;DHT22;2463;49.948;8.472;2023-03-21T14:04:15;14.40;99.90
4896;DHT22;2463;49.948;8.472;2023-03-21T14:09:13;14.20;99.90
4896;DHT22;2463;49.948;8.472;2023-03-21T14:11:42;14.20;99.90
4896;DHT22;2463;49.948;8.472;2023-03-21T14:14:12;14.10;99.90
4896;DHT22;2463;49.948;8.472;2023-03-21T14:16:40;14.20;99.90
4896;DHT22;2463;49.948;8.472;2023-03-21T14:19:10;14.20;99.90
4896;DHT22;2463;49.948;8.472;2023-03-21T14:21:44;14.20;99.90
4896;DHT22;2463;49.948;8.472;2023-03-21T14:24:12;14.10;99.90
4896;DHT22;2463;49.948;8.472;2023-03-21T14:26:42;14.20;99.90
4896;DHT22;2463;49.948;8.472;2023-03-21T14:29:16;14.20;99.90
4896;DHT22;2463;49.948;8.472;2023-03-21T14:31:54;14.20;99.90
4896;DHT22;2463;49.948;8.472;2023-03-21T14:34:21;14.20;99.90
4896;DHT22;2463;49.948;8.472;2023-03-21T14:36:49;14.20;99.90
4896;DHT22;2463;49.948;8.472;2023-03-21T14:39:29;14.20;99.90
4896;DHT22;2463;49.948;8.472;2023-03-21T14:42:04;14.20;99.90
4896;DHT22;2463;49.948;8.472;2023-03-21T14:44:42;14.10;99.90
4896;DHT22;2463;49.948;8.472;2023-03-21T14:47:29;14.00;99.90
4896;DHT22;2463;49.948;8.472;2023-03-21T14:49:58;13.80;99.90
4896;DHT22;2463;49.948;8.472;2023-03-21T14:52:30;13.70;99.90
4896;DHT22;2463;49.948;8.472;2023-03-21T14:54:59;13.60;99.90
4896;DHT22;2463;49.948;8.472;2023-03-21T14:57:28;13.70;99.90
4896;DHT22;2463;49.948;8.472;2023-03-21T14:59:59;13.80;99.90
4896;DHT22;2463;49.948;8.472;2023-03-21T15:02:31;13.90;99.90
4896;DHT22;2463;49.948;8.472;2023-03-21T15:05:28;14.00;99.90
4896;DHT22;2463;49.948;8.472;2023-03-21T15:10:26;14.20;99.90
4896;DHT22;2463;49.948;8.472;2023-03-21T15:12:55;14.30;99.90
4896;DHT22;2463;49.948;8.472;2023-03-21T15:15:25;14.40;99.90
4896;DHT22;2463;49.948;8.472;2023-03-21T15:17:55;14.50;99.90
4896;DHT22;2463;49.948;8.472;2023-03-21T15:20:26;14.60;99.90
4896;DHT22;2463;49.948;8.472;2023-03-21T15:22:56;14.60;99.90
4896;DHT22;2463;49.948;8.472;2023-03-21T15:25:28;14.60;99.90
4896;DHT22;2463;49.948;8.472;2023-03-21T15:27:56;14.70;99.90
4896;DHT22;2463;49.948;8.472;2023-03-21T15:30:29;14.70;99.90
4896;DHT22;2463;49.948;8.472;2023-03-21T15:32:57;14.70;99.90
4896;DHT22;2463;49.948;8.472;2023-03-21T15:35:34;14.70;99.90
4896;DHT22;2463;49.948;8.472;2023-03-21T15:38:01;14.50;99.90
4896;DHT22;2463;49.948;8.472;2023-03-21T15:40:32;14.10;99.90
4896;DHT22;2463;49.948;8.472;2023-03-21T15:43:18;13.90;99.90
4896;DHT22;2463;49.948;8.472;2023-03-21T15:45:47;13.70;99.90
4896;DHT22;2463;49.948;8.472;2023-03-21T15:48:14;13.60;99.90
4896;DHT22;2463;49.948;8.472;2023-03-21T15:51:02;13.60;99.90
4896;DHT22;2463;49.948;8.472;2023-03-21T15:53:32;13.70;99.90
4896;DHT22;2463;49.948;8.472;2023-03-21T15:55:59;13.70;99.90
4896;DHT22;2463;49.948;8.472;2023-03-21T15:58:40;13.90;99.90
4896;DHT22;2463;49.948;8.472;2023-03-21T16:01:16;13.90;99.90
4896;DHT22;2463;49.948;8.472;2023-03-21T16:03:46;14.00;99.90
4896;DHT22;2463;49.948;8.472;2023-03-21T16:06:21;14.10;99.90
4896;DHT22;2463;49.948;8.472;2023-03-21T16:09:02;14.10;99.90
4896;DHT22;2463;49.948;8.472;2023-03-21T16:11:43;14.10;99.90
4896;DHT22;2463;49.948;8.472;2023-03-21T16:14:13;14.10;99.90
4896;DHT22;2463;49.948;8.472;2023-03-21T16:16:40;14.10;99.90
4896;DHT22;2463;49.948;8.472;2023-03-21T16:19:06;14.20;99.90
4896;DHT22;2463;49.948;8.472;2023-03-21T16:21:33;14.10;99.90
4896;DHT22;2463;49.948;8.472;2023-03-21T16:24:05;14.10;99.90
4896;DHT22;2463;49.948;8.472;2023-03-21T16:26:35;14.10;99.90
4896;DHT22;2463;49.948;8.472;2023-03-21T16:29:03;14.10;99.90
4896;DHT22;2463;49.948;8.472;2023-03-21T16:31:32;14.10;99.90
4896;DHT22;2463;49.948;8.472;2023-03-21T16:33:59;14.00;99.90
4896;DHT22;2463;49.948;8.472;2023-03-21T16:36:35;14.00;99.90
4896;DHT22;2463;49.948;8.472;2023-03-21T16:39:21;13.90;99.90
4896;DHT22;2463;49.948;8.472;2023-03-21T16:41:49;13.90;99.90
4896;DHT22;2463;49.948;8.472;2023-03-21T16:44:17;13.90;99.90
4896;DHT22;2463;49.948;8.472;2023-03-21T16:46:44;13.80;99.90
4896;DHT22;2463;49.948;8.472;2023-03-21T16:49:24;13.80;99.90
4896;DHT22;2463;49.948;8.472;2023-03-21T16:51:53;13.70;99.90
4896;DHT22;2463;49.948;8.472;2023-03-21T16:54:20;13.70;99.90
4896;DHT22;2463;49.948;8.472;2023-03-21T16:56:50;13.70;99.90
4896;DHT22;2463;49.948;8.472;2023-03-21T16:59:17;13.60;99.90
4896;DHT22;2463;49.948;8.472;2023-03-21T17:01:44;13.60;99.90
4896;DHT22;2463;49.948;8.472;2023-03-21T17:04:15;13.50;99.90
4896;DHT22;2463;49.948;8.472;2023-03-21T17:06:44;13.40;99.90
4896;DHT22;2463;49.948;8.472;2023-03-21T17:09:13;13.40;99.90
4896;DHT22;2463;49.948;8.472;2023-03-21T17:11:41;13.40;99.90
4896;DHT22;2463;49.948;8.472;2023-03-21T17:14:10;13.40;99.90
4896;DHT22;2463;49.948;8.472;2023-03-21T17:16:38;13.20;99.90
4896;DHT22;2463;49.948;8.472;2023-03-21T17:19:12;13.00;99.90
4896;DHT22;2463;49.948;8.472;2023-03-21T17:21:38;12.80;99.90
4896;DHT22;2463;49.948;8.472;2023-03-21T17:24:05;12.60;99.90
4896;DHT22;2463;49.948;8.472;2023-03-21T17:26:32;12.60;99.90
4896;DHT22;2463;49.948;8.472;2023-03-21T17:28:59;12.60;99.90
4896;DHT22;2463;49.948;8.472;2023-03-21T17:31:27;12.60;99.90
4896;DHT22;2463;49.948;8.472;2023-03-21T17:33:57;12.40;99.90
4896;DHT22;2463;49.948;8.472;2023-03-21T17:36:29;12.40;99.90
4896;DHT22;2463;49.948;8.472;2023-03-21T17:38:56;12.40;99.90
4896;DHT22;2463;49.948;8.472;2023-03-21T17:41:23;12.30;99.90